createdAt,value
2018-07-21T00:00:55.186Z,73.93
2018-07-21T00:01:55.066Z,73.83
2018-07-21T00:02:55.453Z,73.64
2018-07-21T00:12:40.284Z,73.64
2018-07-21T00:13:40.067Z,73.83
2018-07-21T00:14:39.989Z,73.93
2018-07-21T00:15:40.010Z,74.22
2018-07-21T00:16:40.122Z,73.83
2018-07-21T00:17:40.112Z,73.93
2018-07-21T00:27:27.726Z,74.02
2018-07-21T00:28:27.600Z,74.02
2018-07-21T00:29:27.982Z,73.93
2018-07-21T00:30:27.956Z,73.93
2018-07-21T00:31:28.043Z,74.02
2018-07-21T00:32:27.908Z,74.02
2018-07-21T00:42:19.677Z,73.64
2018-07-21T00:43:19.785Z,73.83
2018-07-21T00:44:19.604Z,73.83
2018-07-21T00:45:19.695Z,73.83
2018-07-21T00:46:19.682Z,73.83
2018-07-21T00:47:19.624Z,73.64
2018-07-21T00:57:24.010Z,73.44
2018-07-21T00:58:23.364Z,73.44
2018-07-21T00:59:23.312Z,73.25
2018-07-21T01:00:23.035Z,73.15
2018-07-21T01:01:22.951Z,73.54
2018-07-21T01:02:23.259Z,73.25
2018-07-21T01:03:22.896Z,73.54
2018-07-21T01:04:23.204Z,73.44
2018-07-21T01:05:23.128Z,73.15
2018-07-21T01:06:57.627Z,73.44
2018-07-21T01:07:22.839Z,73.15
2018-07-21T01:08:22.917Z,73.58
2018-07-21T01:09:23.311Z,73.44
2018-07-21T01:17:52.650Z,73.15
2018-07-21T01:18:52.720Z,73.64
2018-07-21T01:19:52.999Z,73.44
2018-07-21T01:20:52.588Z,73.44
2018-07-21T01:21:52.083Z,73.54
2018-07-21T01:22:52.667Z,73.64
2018-07-21T01:32:38.605Z,73.54
2018-07-21T01:33:38.645Z,73.44
2018-07-21T01:34:38.519Z,73.73
2018-07-21T01:35:38.653Z,73.73
2018-07-21T01:36:38.539Z,73.73
2018-07-21T01:37:38.666Z,73.64
2018-07-21T01:47:35.765Z,74.22
2018-07-21T01:48:36.694Z,74.22
2018-07-21T01:49:35.845Z,74.22
2018-07-21T01:50:35.965Z,74.51
2018-07-21T01:51:35.977Z,74.41
2018-07-21T01:52:35.779Z,74.6
2018-07-21T01:53:35.800Z,74.32
2018-07-21T02:02:36.166Z,74.02
2018-07-21T02:03:22.906Z,74.02
2018-07-21T02:04:22.789Z,73.83
2018-07-21T02:05:22.944Z,73.83
2018-07-21T02:06:22.987Z,73.83
2018-07-21T02:07:22.776Z,73.83
2018-07-21T02:08:22.914Z,73.83
2018-07-21T02:18:10.407Z,74.51
2018-07-21T02:19:10.862Z,74.12
2018-07-21T02:20:10.509Z,74.41
2018-07-21T02:22:35.914Z,74.51
2018-07-21T02:23:33.382Z,74.12
2018-07-21T02:24:33.252Z,74.41
2018-07-21T02:25:33.330Z,74.32
2018-07-21T02:26:33.143Z,74.32
2018-07-21T02:27:33.360Z,74.51
2018-07-21T02:28:33.206Z,73.83
2018-07-21T02:29:33.252Z,74.12
2018-07-21T02:31:32.759Z,73.83
2018-07-21T02:32:32.619Z,74.32
2018-07-21T02:33:32.941Z,74.22
2018-07-21T02:34:33.680Z,73.83
2018-07-21T02:35:32.919Z,74.02
2018-07-21T02:36:33.002Z,73.83
2018-07-21T02:42:46.638Z,73.83
2018-07-21T02:43:42.570Z,74.02
2018-07-21T02:44:42.445Z,73.96
2018-07-21T02:45:42.485Z,74.06
2018-07-21T02:46:42.438Z,74.02
2018-07-21T02:47:42.813Z,74.02
2018-07-21T02:48:42.654Z,74.51
2018-07-21T02:56:07.456Z,74.41
2018-07-21T02:57:07.880Z,74.02
2018-07-21T02:58:06.999Z,74.32
2018-07-21T02:59:07.483Z,74.32
2018-07-21T03:00:07.347Z,74.41
2018-07-21T03:01:07.121Z,74.12
2018-07-21T03:02:07.381Z,74.32
2018-07-21T03:03:07.306Z,74.02
2018-07-21T03:04:07.124Z,74.6
2018-07-21T03:05:07.126Z,73.93
2018-07-21T03:06:07.270Z,74.22
2018-07-21T03:07:07.246Z,74.02
2018-07-21T03:17:00.633Z,74.6
2018-07-21T03:18:00.928Z,74.54
2018-07-21T03:19:00.487Z,74.22
2018-07-21T03:20:00.635Z,74.6
2018-07-21T03:21:00.517Z,74.41
2018-07-21T03:22:00.492Z,74.51
2018-07-21T03:31:58.140Z,74.22
2018-07-21T03:32:57.412Z,74.22
2018-07-21T03:33:57.368Z,74.22
2018-07-21T03:34:57.540Z,74.22
2018-07-21T03:35:57.503Z,74.41
2018-07-21T03:36:57.443Z,74.12
2018-07-21T03:47:01.567Z,74.93
2018-07-21T03:48:00.887Z,74.9
2018-07-21T03:49:00.894Z,74.84
2018-07-21T03:50:01.025Z,74.99
2018-07-21T03:51:01.081Z,74.99
2018-07-21T03:52:00.811Z,75.28
2018-07-21T03:53:00.590Z,74.7
2018-07-21T04:02:01.170Z,74.8
2018-07-21T04:02:47.892Z,74.84
2018-07-21T04:03:47.960Z,74.74
2018-07-21T04:04:47.990Z,74.8
2018-07-21T04:05:48.400Z,74.7
2018-07-21T04:06:49.638Z,74.64
2018-07-21T04:07:48.800Z,75.19
2018-07-21T04:17:21.526Z,75.77
2018-07-21T04:18:21.042Z,76.06
2018-07-21T04:19:22.101Z,75.87
2018-07-21T04:20:21.542Z,76.06
2018-07-21T04:21:21.570Z,75.96
2018-07-21T04:22:21.540Z,75.67
2018-07-21T04:32:06.300Z,75.96
2018-07-21T04:33:06.590Z,76.74
2018-07-21T04:34:06.481Z,76.54
2018-07-21T04:35:06.245Z,76.35
2018-07-21T04:36:06.353Z,76.25
2018-07-21T04:37:06.357Z,76.25
2018-07-21T04:38:06.252Z,76.93
2018-07-21T04:39:07.066Z,76.83
2018-07-21T04:40:06.928Z,76.64
2018-07-21T04:41:06.998Z,76.74
2018-07-21T04:42:07.048Z,76.64
2018-07-21T04:51:51.992Z,77.06
2018-07-21T04:52:52.123Z,77.03
2018-07-21T04:53:52.154Z,77.12
2018-07-21T04:54:52.028Z,77.03
2018-07-21T04:55:52.018Z,77.16
2018-07-21T04:56:52.320Z,76.93
2018-07-21T05:03:24.129Z,77.22
2018-07-21T05:04:02.886Z,77.03
2018-07-21T05:05:02.868Z,77.06
2018-07-21T05:06:02.881Z,77.22
2018-07-21T05:07:03.499Z,76.83
2018-07-21T05:08:04.787Z,76.83
2018-07-21T05:09:02.957Z,77.22
2018-07-21T05:15:26.167Z,77.12
2018-07-21T05:16:11.012Z,77.12
2018-07-21T05:17:11.047Z,77.03
2018-07-21T05:18:11.042Z,76.93
2018-07-21T05:19:11.055Z,77.22
2018-07-21T05:20:10.986Z,76.93
2018-07-21T05:21:10.839Z,76.93
2018-07-21T05:27:33.586Z,77.22
2018-07-21T05:28:20.449Z,77.12
2018-07-21T05:29:20.763Z,76.83
2018-07-21T05:30:20.418Z,76.93
2018-07-21T05:31:20.524Z,76.74
2018-07-21T05:32:19.791Z,77.22
2018-07-21T05:33:19.970Z,77.12
2018-07-21T05:35:19.607Z,77.12
2018-07-21T05:36:19.535Z,77.16
2018-07-21T05:37:19.554Z,77.42
2018-07-21T05:38:19.546Z,77.42
2018-07-21T05:39:19.545Z,77.8
2018-07-21T05:40:19.556Z,77.22
2018-07-21T05:41:19.512Z,77.51
2018-07-21T05:42:19.532Z,77.42
2018-07-21T05:43:19.574Z,77.51
2018-07-21T05:44:19.530Z,77.42
2018-07-21T05:45:19.555Z,77.51
2018-07-21T05:46:19.575Z,77.32
2018-07-21T05:47:19.662Z,77.51
2018-07-21T05:48:19.942Z,77.45
2018-07-21T05:49:20.075Z,77.61
2018-07-21T05:50:19.928Z,77.61
2018-07-21T05:51:20.121Z,77.51
2018-07-21T05:52:20.418Z,77.61
2018-07-21T05:53:23.643Z,77.51
2018-07-21T05:54:19.769Z,77.61
2018-07-21T05:55:19.877Z,77.61
2018-07-21T05:56:19.993Z,77.51
2018-07-21T05:57:20.654Z,77.51
2018-07-21T05:58:19.969Z,77.51
2018-07-21T06:00:22.480Z,77.61
2018-07-21T06:01:22.134Z,77.9
2018-07-21T06:02:22.295Z,77.9
2018-07-21T06:03:22.351Z,78.03
2018-07-21T06:04:22.591Z,78
2018-07-21T06:05:22.465Z,78
2018-07-21T06:06:22.424Z,77.8
2018-07-21T06:09:39.598Z,78
2018-07-21T06:10:38.457Z,78
2018-07-21T06:11:39.017Z,77.75
2018-07-21T06:12:38.861Z,77.9
2018-07-21T06:13:38.924Z,77.94
2018-07-21T06:14:39.068Z,77.8
2018-07-21T06:21:56.225Z,78.38
2018-07-21T06:22:56.107Z,78.38
2018-07-21T06:23:55.929Z,78.29
2018-07-21T06:24:55.736Z,78.19
2018-07-21T06:25:55.719Z,78.09
2018-07-21T06:26:55.743Z,78
2018-07-21T06:34:06.652Z,78.29
2018-07-21T06:35:06.772Z,78
2018-07-21T06:36:07.054Z,78.23
2018-07-21T06:37:06.772Z,78.09
2018-07-21T06:38:07.037Z,78.29
2018-07-21T06:39:08.012Z,78.19
2018-07-21T06:45:51.646Z,78.29
2018-07-21T06:46:51.697Z,78.29
2018-07-21T06:47:51.924Z,78.38
2018-07-21T06:48:52.818Z,78
2018-07-21T06:49:52.105Z,78.09
2018-07-21T06:50:52.319Z,78.29
2018-07-21T06:51:52.490Z,78.67
2018-07-21T06:52:52.264Z,78.67
2018-07-21T06:53:52.397Z,78.67
2018-07-21T06:54:52.173Z,78.67
2018-07-21T06:55:52.193Z,78.67
2018-07-21T06:56:51.638Z,78.48
2018-07-21T07:05:20.322Z,78.71
2018-07-21T07:06:20.702Z,78.48
2018-07-21T07:07:20.436Z,78.67
2018-07-21T07:08:20.278Z,78.58
2018-07-21T07:09:20.502Z,78.91
2018-07-21T07:10:20.454Z,78.61
2018-07-21T07:17:29.016Z,78.77
2018-07-21T07:18:28.393Z,78.71
2018-07-21T07:19:28.410Z,79
2018-07-21T07:20:28.610Z,78.77
2018-07-21T07:21:28.545Z,78.97
2018-07-21T07:22:28.871Z,78.81
2018-07-21T07:29:22.449Z,79.16
2018-07-21T07:30:22.430Z,79.06
2018-07-21T07:31:22.376Z,78.87
2018-07-21T07:32:22.436Z,79.06
2018-07-21T07:33:22.387Z,78.87
2018-07-21T07:34:22.790Z,79.06
2018-07-21T07:41:32.963Z,79.16
2018-07-21T07:42:32.950Z,79.1
2018-07-21T07:43:32.797Z,78.67
2018-07-21T07:44:32.968Z,79.25
2018-07-21T07:45:32.707Z,79.3
2018-07-21T07:46:32.509Z,79
2018-07-21T07:53:42.691Z,79.2
2018-07-21T07:54:42.314Z,79.06
2018-07-21T07:55:42.475Z,78.97
2018-07-21T07:56:42.700Z,79.06
2018-07-21T07:57:42.511Z,79.16
2018-07-21T07:58:42.666Z,79.2
2018-07-21T08:05:52.858Z,78.77
2018-07-21T08:06:53.423Z,79.06
2018-07-21T08:07:53.601Z,79.35
2018-07-21T08:08:53.256Z,79.16
2018-07-21T08:09:52.975Z,79.74
2018-07-21T08:10:53.041Z,79.93
2018-07-21T08:17:17.234Z,80.22
2018-07-21T08:18:04.662Z,80.22
2018-07-21T08:19:04.812Z,80.32
2018-07-21T08:20:07.571Z,80.13
2018-07-21T08:21:04.478Z,80.17
2018-07-21T08:22:04.036Z,80.71
2018-07-21T08:23:04.136Z,81
2018-07-21T08:29:29.407Z,81.1
2018-07-21T08:30:16.334Z,81.13
2018-07-21T08:31:16.496Z,81.23
2018-07-21T08:32:18.333Z,80.94
2018-07-21T08:33:16.326Z,80.8
2018-07-21T08:34:16.256Z,80.9
2018-07-21T08:35:16.571Z,81.52
2018-07-21T08:41:33.739Z,82.26
2018-07-21T08:42:26.326Z,82.59
2018-07-21T08:43:26.943Z,82.35
2018-07-21T08:44:26.472Z,82.4
2018-07-21T08:45:35.606Z,80.17
2018-07-21T08:46:26.227Z,81.62
2018-07-21T08:47:27.727Z,79.2
2018-07-21T08:48:26.242Z,79.58
2018-07-21T08:49:26.359Z,80.62
2018-07-21T08:50:26.407Z,81.2
2018-07-21T08:51:26.348Z,80.8
2018-07-21T08:52:27.301Z,80.8
2018-07-21T08:53:26.600Z,80.9
2018-07-21T08:54:26.625Z,80.42
2018-07-21T08:55:26.171Z,80.22
2018-07-21T08:56:26.206Z,80.03
2018-07-21T08:57:26.187Z,80.32
2018-07-21T08:58:26.123Z,79.97
2018-07-21T08:59:26.205Z,80.42
2018-07-21T09:00:26.198Z,79.97
2018-07-21T09:01:26.171Z,79.93
2018-07-21T09:02:26.118Z,79.64
2018-07-21T09:03:26.163Z,79.68
2018-07-21T09:04:26.158Z,79.78
2018-07-21T09:05:28.636Z,79.16
2018-07-21T09:06:26.149Z,79.68
2018-07-21T09:07:26.202Z,79.88
2018-07-21T09:08:26.186Z,79.25
2018-07-21T09:09:26.461Z,79.39
2018-07-21T09:10:26.177Z,78.91
2018-07-21T09:11:26.247Z,78.71
2018-07-21T09:12:26.454Z,79.2
2018-07-21T09:13:26.246Z,78.91
2018-07-21T09:14:26.227Z,79.1
2018-07-21T09:15:26.275Z,79.2
2018-07-21T09:16:26.290Z,79
2018-07-21T09:17:26.256Z,78.38
2018-07-21T09:18:26.196Z,78.52
2018-07-21T09:19:26.386Z,78.97
2018-07-21T09:20:26.252Z,78.87
2018-07-21T09:21:26.254Z,78.48
2018-07-21T09:22:26.302Z,78.91
2018-07-21T09:23:26.275Z,78.77
2018-07-21T09:24:26.232Z,78.38
2018-07-21T09:25:26.255Z,78.77
2018-07-21T09:26:26.266Z,78.48
2018-07-21T09:27:26.241Z,78.77
2018-07-21T09:28:26.259Z,78.67
2018-07-21T09:29:28.757Z,78.97
2018-07-21T09:30:26.240Z,78.58
2018-07-21T09:31:26.342Z,78.19
2018-07-21T09:32:26.264Z,78.29
2018-07-21T09:33:26.236Z,78.38
2018-07-21T09:34:26.292Z,78.97
2018-07-21T09:35:26.214Z,79.06
2018-07-21T09:36:26.311Z,78.97
2018-07-21T09:37:26.410Z,78.48
2018-07-21T09:38:26.282Z,78.67
2018-07-21T09:39:26.390Z,78.67
2018-07-21T09:40:26.242Z,78.67
2018-07-21T09:41:26.270Z,78.58
2018-07-21T09:42:26.223Z,78.97
2018-07-21T09:43:26.237Z,78.67
2018-07-21T09:44:26.244Z,78.77
2018-07-21T09:45:26.213Z,78.67
2018-07-21T09:46:26.242Z,78.38
2018-07-21T09:47:26.281Z,78
2018-07-21T09:48:26.265Z,78.19
2018-07-21T09:49:26.245Z,78.09
2018-07-21T09:50:26.272Z,78.19
2018-07-21T09:51:26.258Z,78.48
2018-07-21T09:52:26.294Z,78.87
2018-07-21T09:53:26.272Z,78.58
2018-07-21T09:54:26.566Z,78.38
2018-07-21T09:55:26.342Z,79.25
2018-07-21T09:56:26.272Z,79.97
2018-07-21T09:57:26.314Z,80.36
2018-07-21T09:58:26.265Z,80.13
2018-07-21T09:59:26.352Z,81.1
2018-07-21T10:00:26.348Z,80.9
2018-07-21T10:01:26.329Z,81.29
2018-07-21T10:02:26.345Z,80.96
2018-07-21T10:03:26.317Z,81.35
2018-07-21T10:04:26.290Z,81.45
2018-07-21T10:05:26.346Z,80.96
2018-07-21T10:06:26.408Z,81.35
2018-07-21T10:07:26.303Z,81.15
2018-07-21T10:08:26.371Z,80.96
2018-07-21T10:13:43.758Z,81.73
2018-07-21T10:13:56.159Z,81.73
2018-07-21T10:14:56.183Z,81.64
2018-07-21T10:15:56.222Z,81.93
2018-07-21T10:16:56.315Z,81.93
2018-07-21T10:17:56.202Z,82.12
2018-07-21T10:18:56.253Z,82.6
2018-07-21T10:19:56.261Z,82.7
2018-07-21T10:20:56.229Z,82.51
2018-07-21T10:21:56.215Z,82.57
2018-07-21T10:22:56.156Z,82.7
2018-07-21T10:23:56.231Z,83
2018-07-21T10:24:56.103Z,83.28
2018-07-21T10:25:56.146Z,83.53
2018-07-21T10:26:56.130Z,83.73
2018-07-21T10:27:56.125Z,83.63
2018-07-21T10:28:56.153Z,83.92
2018-07-21T10:29:56.169Z,83.53
2018-07-21T10:30:56.191Z,84.11
2018-07-21T10:31:56.153Z,83.92
2018-07-21T10:32:56.224Z,84.11
2018-07-21T10:33:56.331Z,84.75
2018-07-21T10:34:56.201Z,84.36
2018-07-21T10:35:56.332Z,84.36
2018-07-21T10:42:34.681Z,84.56
2018-07-21T10:43:34.588Z,84.66
2018-07-21T10:44:34.628Z,84.36
2018-07-21T10:45:34.528Z,85.04
2018-07-21T10:46:34.551Z,84.42
2018-07-21T10:47:34.540Z,84.36
2018-07-21T10:48:34.560Z,84.32
2018-07-21T10:49:34.607Z,84.84
2018-07-21T10:50:34.561Z,84.8
2018-07-21T10:51:34.677Z,84.42
2018-07-21T10:52:34.634Z,84.22
2018-07-21T10:53:34.551Z,84.52
2018-07-21T10:54:34.535Z,84.27
2018-07-21T10:55:34.568Z,84.42
2018-07-21T10:56:34.538Z,84.52
2018-07-21T10:57:34.556Z,84.22
2018-07-21T10:58:34.548Z,84.66
2018-07-21T10:59:34.587Z,84.36
2018-07-21T11:00:34.593Z,84.08
2018-07-21T11:01:34.569Z,84.17
2018-07-21T11:02:34.561Z,84.36
2018-07-21T11:03:34.591Z,84.08
2018-07-21T11:04:34.572Z,84.46
2018-07-21T11:05:34.635Z,84.94
2018-07-21T11:06:34.620Z,84.36
2018-07-21T11:07:34.580Z,84.27
2018-07-21T11:08:34.644Z,84.27
2018-07-21T11:09:34.613Z,83.88
2018-07-21T11:10:34.610Z,84.08
2018-07-21T11:11:34.566Z,83.78
2018-07-21T11:12:34.693Z,83.69
2018-07-21T11:13:34.621Z,83.49
2018-07-21T11:14:34.622Z,83.78
2018-07-21T11:15:34.672Z,83.53
2018-07-21T11:16:34.680Z,83.63
2018-07-21T11:17:34.624Z,83.59
2018-07-21T11:18:34.682Z,83.59
2018-07-21T11:19:35.295Z,84.08
2018-07-21T11:20:34.650Z,84.08
2018-07-21T11:21:34.628Z,84.17
2018-07-21T11:22:34.602Z,83.69
2018-07-21T11:23:35.223Z,83.3
2018-07-21T11:24:34.658Z,83.3
2018-07-21T11:25:34.642Z,83.34
2018-07-21T11:26:34.683Z,83.59
2018-07-21T11:27:34.598Z,83.3
2018-07-21T11:28:34.653Z,83.49
2018-07-21T11:29:34.617Z,83.44
2018-07-21T11:30:34.622Z,83.44
2018-07-21T11:31:34.658Z,83.44
2018-07-21T11:32:34.655Z,84.08
2018-07-21T11:33:34.663Z,83.3
2018-07-21T11:34:34.650Z,83.34
2018-07-21T11:35:34.746Z,83.78
2018-07-21T11:36:34.769Z,84.36
2018-07-21T11:37:34.598Z,84.27
2018-07-21T11:38:34.681Z,83.59
2018-07-21T11:39:34.658Z,83.3
2018-07-21T11:40:34.652Z,83.44
2018-07-21T11:41:34.665Z,83.59
2018-07-21T11:42:34.681Z,83.78
2018-07-21T11:43:34.949Z,83.98
2018-07-21T11:44:34.749Z,83.73
2018-07-21T11:45:34.653Z,83.3
2018-07-21T11:46:34.658Z,83.63
2018-07-21T11:47:34.637Z,84.08
2018-07-21T11:48:34.688Z,84.17
2018-07-21T11:49:34.747Z,84.46
2018-07-21T11:50:34.651Z,85.29
2018-07-21T11:51:34.651Z,85.68
2018-07-21T11:52:34.663Z,85.68
2018-07-21T11:53:34.701Z,86.11
2018-07-21T11:54:34.679Z,85.73
2018-07-21T11:55:34.691Z,86.16
2018-07-21T11:56:34.741Z,86.06
2018-07-21T11:57:34.665Z,86.31
2018-07-21T11:58:34.683Z,86.69
2018-07-21T11:59:37.746Z,86.21
2018-07-21T12:00:34.682Z,86.89
2018-07-21T12:01:34.663Z,86.11
2018-07-21T12:02:34.704Z,86.6
2018-07-21T12:03:34.773Z,86.6
2018-07-21T12:04:34.721Z,86.21
2018-07-21T12:05:34.779Z,86.02
2018-07-21T12:06:35.251Z,85.73
2018-07-21T12:07:34.709Z,86.6
2018-07-21T12:08:34.751Z,86.31
2018-07-21T12:09:34.671Z,86.21
2018-07-21T12:10:34.710Z,86.36
2018-07-21T12:11:34.749Z,87.33
2018-07-21T12:12:34.695Z,87.71
2018-07-21T12:13:34.887Z,87.91
2018-07-21T12:14:34.737Z,88.1
2018-07-21T12:15:34.705Z,88.01
2018-07-21T12:16:34.681Z,88.59
2018-07-21T12:17:34.706Z,88.49
2018-07-21T12:18:34.714Z,88.29
2018-07-21T12:19:34.700Z,87.52
2018-07-21T12:20:34.742Z,87.43
2018-07-21T12:21:34.750Z,86.75
2018-07-21T12:22:34.682Z,87.37
2018-07-21T12:23:34.755Z,88.49
2018-07-21T12:24:35.695Z,88.78
2018-07-21T12:25:34.782Z,88.87
2018-07-21T12:26:34.805Z,89.45
2018-07-21T12:27:34.813Z,89.55
2018-07-21T12:28:34.732Z,89.26
2018-07-21T12:29:34.749Z,90.03
2018-07-21T12:30:34.772Z,90.37
2018-07-21T12:31:34.784Z,89.99
2018-07-21T12:32:34.722Z,89.79
2018-07-21T12:33:34.800Z,89.26
2018-07-21T12:34:34.736Z,89.55
2018-07-21T12:35:34.755Z,88.93
2018-07-21T12:36:34.765Z,88.2
2018-07-21T12:37:34.823Z,89.36
2018-07-21T12:38:34.868Z,88.87
2018-07-21T12:39:34.769Z,88.97
2018-07-21T12:40:34.778Z,88.97
2018-07-21T12:41:34.752Z,88.87
2018-07-21T12:42:34.753Z,88.2
2018-07-21T12:43:34.761Z,89.01
2018-07-21T12:44:35.225Z,88.97
2018-07-21T12:45:34.744Z,89.55
2018-07-21T12:46:34.782Z,90.03
2018-07-21T12:47:34.765Z,89.07
2018-07-21T12:48:34.786Z,89.84
2018-07-21T12:49:34.790Z,89.45
2018-07-21T12:50:35.366Z,89.99
2018-07-21T12:51:34.752Z,89.79
2018-07-21T12:52:34.812Z,89.79
2018-07-21T12:53:34.838Z,89.31
2018-07-21T12:54:34.867Z,89.36
2018-07-21T12:55:34.814Z,89.79
2018-07-21T12:56:34.852Z,89.55
2018-07-21T12:57:34.777Z,89.7
2018-07-21T12:58:34.783Z,89.41
2018-07-21T12:59:34.829Z,89.94
2018-07-21T13:00:34.801Z,89.51
2018-07-21T13:01:34.803Z,89.79
2018-07-21T13:02:35.404Z,89.41
2018-07-21T13:03:34.791Z,89.7
2018-07-21T13:04:34.804Z,89.31
2018-07-21T13:05:34.832Z,90.19
2018-07-21T13:06:35.110Z,89.51
2018-07-21T13:07:34.814Z,89.22
2018-07-21T13:08:34.796Z,89.89
2018-07-21T13:09:34.797Z,88.83
2018-07-21T13:10:34.809Z,88.73
2018-07-21T13:11:34.799Z,88.39
2018-07-21T13:12:34.885Z,89.36
2018-07-21T13:13:34.853Z,89.26
2018-07-21T13:14:34.782Z,89.65
2018-07-21T13:15:34.893Z,89.99
2018-07-21T13:16:34.874Z,89.7
2018-07-21T13:17:34.837Z,89.03
2018-07-21T13:18:34.851Z,88.87
2018-07-21T13:19:34.932Z,88.97
2018-07-21T13:20:34.829Z,88.87
2018-07-21T13:21:34.879Z,89.17
2018-07-21T13:22:34.799Z,89.07
2018-07-21T13:23:34.850Z,88.97
2018-07-21T13:24:34.812Z,88.59
2018-07-21T13:25:34.834Z,89.07
2018-07-21T13:26:34.837Z,89.36
2018-07-21T13:27:34.876Z,88.87
2018-07-21T13:28:34.858Z,88.68
2018-07-21T13:29:34.830Z,88.97
2018-07-21T13:30:34.864Z,88.97
2018-07-21T13:31:35.577Z,89.36
2018-07-21T13:32:34.841Z,89.55
2018-07-21T13:33:34.848Z,89.75
2018-07-21T13:34:35.128Z,89.89
2018-07-21T13:35:34.831Z,90.09
2018-07-21T13:36:34.870Z,90.19
2018-07-21T13:37:34.877Z,89.99
2018-07-21T13:38:34.885Z,90.67
2018-07-21T13:39:34.856Z,90.67
2018-07-21T13:40:34.868Z,90.47
2018-07-21T13:41:34.895Z,90.09
2018-07-21T13:42:34.832Z,89.61
2018-07-21T13:43:34.835Z,88.87
2018-07-21T13:44:34.878Z,89.65
2018-07-21T13:45:34.990Z,90.03
2018-07-21T13:46:34.872Z,90.03
2018-07-21T13:47:34.875Z,90.03
2018-07-21T13:48:34.917Z,90.42
2018-07-21T13:49:34.891Z,89.45
2018-07-21T13:50:34.885Z,88.97
2018-07-21T13:51:34.869Z,89.75
2018-07-21T13:52:34.894Z,89.36
2018-07-21T13:53:34.864Z,88.68
2018-07-21T13:54:34.871Z,88.53
2018-07-21T13:55:34.881Z,88.2
2018-07-21T13:56:34.870Z,89.11
2018-07-21T13:57:34.900Z,89.31
2018-07-21T13:58:34.936Z,88.29
2018-07-21T13:59:34.890Z,88.92
2018-07-21T14:00:34.921Z,88.63
2018-07-21T14:01:34.934Z,89.31
2018-07-21T14:02:35.438Z,88.63
2018-07-21T14:03:34.912Z,89.4
2018-07-21T14:04:34.925Z,88.68
2018-07-21T14:05:34.893Z,89.07
2018-07-21T14:06:34.952Z,89.31
2018-07-21T14:07:34.892Z,89.07
2018-07-21T14:08:34.946Z,89.55
2018-07-21T14:09:34.885Z,89.65
2018-07-21T14:10:34.908Z,89.55
2018-07-21T14:11:34.959Z,89.45
2018-07-21T14:12:34.954Z,90.03
2018-07-21T14:13:34.935Z,90.37
2018-07-21T14:14:35.566Z,90.28
2018-07-21T14:15:34.943Z,90.47
2018-07-21T14:16:34.949Z,90.77
2018-07-21T14:17:34.952Z,90.86
2018-07-21T14:18:34.960Z,90.77
2018-07-21T14:19:34.908Z,90.47
2018-07-21T14:20:35.007Z,90.37
2018-07-21T14:21:34.945Z,90.47
2018-07-21T14:22:34.952Z,90.67
2018-07-21T14:23:34.946Z,90.86
2018-07-21T14:24:34.999Z,90.77
2018-07-21T14:25:34.949Z,90.19
2018-07-21T14:26:34.958Z,89.75
2018-07-21T14:27:34.951Z,90.33
2018-07-21T14:28:34.956Z,90.09
2018-07-21T14:29:35.095Z,90.95
2018-07-21T14:30:34.935Z,90.95
2018-07-21T14:31:34.982Z,89.99
2018-07-21T14:32:34.914Z,90.67
2018-07-21T14:33:34.918Z,90.95
2018-07-21T14:34:34.994Z,91.15
2018-07-21T14:35:35.022Z,91.15
2018-07-21T14:36:35.169Z,90.67
2018-07-21T14:37:35.012Z,91
2018-07-21T14:38:35.006Z,90.67
2018-07-21T14:39:34.930Z,90.28
2018-07-21T14:40:34.977Z,90.95
2018-07-21T14:41:35.010Z,90.86
2018-07-21T14:42:34.951Z,89.79
2018-07-21T14:43:34.954Z,90.09
2018-07-21T14:44:35.036Z,90.09
2018-07-21T14:45:34.967Z,90.09
2018-07-21T14:46:34.945Z,90.77
2018-07-21T14:47:34.957Z,90.28
2018-07-21T14:48:34.980Z,90.86
2018-07-21T14:49:34.998Z,89.99
2018-07-21T14:50:34.997Z,89.51
2018-07-21T14:51:34.938Z,90.03
2018-07-21T14:52:34.986Z,90.19
2018-07-21T14:53:34.967Z,90.77
2018-07-21T14:54:35.097Z,90.95
2018-07-21T14:55:34.976Z,90.67
2018-07-21T14:56:34.978Z,90.95
2018-07-21T14:57:35.012Z,90.77
2018-07-21T14:58:35.019Z,89.79
2018-07-21T14:59:34.994Z,89.75
2018-07-21T15:00:34.998Z,89.84
2018-07-21T15:01:35.095Z,88.97
2018-07-21T15:02:35.060Z,88.87
2018-07-21T15:03:34.982Z,89.26
2018-07-21T15:04:34.998Z,90.03
2018-07-21T15:05:35.009Z,90.81
2018-07-21T15:06:35.054Z,90.67
2018-07-21T15:07:34.986Z,90.95
2018-07-21T15:08:35.044Z,90.77
2018-07-21T15:09:35.154Z,91.35
2018-07-21T15:10:35.064Z,90.86
2018-07-21T15:11:35.074Z,90.95
2018-07-21T15:12:35.011Z,90.67
2018-07-21T15:13:35.043Z,91.05
2018-07-21T15:14:35.057Z,90.95
2018-07-21T15:15:35.043Z,90.95
2018-07-21T15:16:35.119Z,89.99
2018-07-21T15:17:35.075Z,89.51
2018-07-21T15:18:35.054Z,89.55
2018-07-21T15:19:35.036Z,89.26
2018-07-21T15:20:35.074Z,88.97
2018-07-21T15:21:35.070Z,88.78
2018-07-21T15:22:35.040Z,89.07
2018-07-21T15:23:35.053Z,88.68
2018-07-21T15:24:35.052Z,88.49
2018-07-21T15:25:35.079Z,88.15
2018-07-21T15:26:35.067Z,88.34
2018-07-21T15:27:35.186Z,88.68
2018-07-21T15:28:35.113Z,88.59
2018-07-21T15:29:35.215Z,88.63
2018-07-21T15:30:35.094Z,88.68
2018-07-21T15:31:35.050Z,87.91
2018-07-21T15:32:35.091Z,88.73
2018-07-21T15:33:35.114Z,88.63
2018-07-21T15:34:35.090Z,88.97
2018-07-21T15:35:35.076Z,88.68
2018-07-21T15:36:35.071Z,89.17
2018-07-21T15:37:35.106Z,89.17
2018-07-21T15:38:35.056Z,89.26
2018-07-21T15:39:35.188Z,89.07
2018-07-21T15:40:35.099Z,89.07
2018-07-21T15:41:35.453Z,88.97
2018-07-21T15:42:35.769Z,89.26
2018-07-21T15:43:35.083Z,89.26
2018-07-21T15:44:35.092Z,88.78
2018-07-21T15:45:35.084Z,89.07
2018-07-21T15:46:35.106Z,89.07
2018-07-21T15:47:35.070Z,89.26
2018-07-21T15:48:35.110Z,88.97
2018-07-21T15:49:35.119Z,89.07
2018-07-21T15:50:35.094Z,89.65
2018-07-21T15:51:35.074Z,89.26
2018-07-21T15:52:35.108Z,88.68
2018-07-21T15:53:35.114Z,89.17
2018-07-21T15:54:35.117Z,88.68
2018-07-21T15:55:35.090Z,89.07
2018-07-21T15:56:35.067Z,88.97
2018-07-21T15:57:35.152Z,89.65
2018-07-21T15:58:35.124Z,89.55
2018-07-21T15:59:35.093Z,89.55
2018-07-21T16:00:35.110Z,88.78
2018-07-21T16:01:35.231Z,88.97
2018-07-21T16:02:35.198Z,88.59
2018-07-21T16:03:35.105Z,89.17
2018-07-21T16:04:35.119Z,88.87
2018-07-21T16:05:35.114Z,89.65
2018-07-21T16:06:35.131Z,89.36
2018-07-21T16:07:35.098Z,89.26
2018-07-21T16:08:35.276Z,89.75
2018-07-21T16:09:35.205Z,90.13
2018-07-21T16:10:35.187Z,89.51
2018-07-21T16:11:35.140Z,88.87
2018-07-21T16:12:35.804Z,88.68
2018-07-21T16:13:35.836Z,89.65
2018-07-21T16:14:35.112Z,88.97
2018-07-21T16:15:35.163Z,88.78
2018-07-21T16:16:36.300Z,88.2
2018-07-21T16:17:35.202Z,88.29
2018-07-21T16:18:35.240Z,88.29
2018-07-21T16:19:35.107Z,88.39
2018-07-21T16:20:35.186Z,88.05
2018-07-21T16:21:35.281Z,88.34
2018-07-21T16:22:35.224Z,88.29
2018-07-21T16:23:35.160Z,88.01
2018-07-21T16:24:35.204Z,88.68
2018-07-21T16:25:35.137Z,88.01
2018-07-21T16:26:35.180Z,88.35
2018-07-21T16:27:35.163Z,88.54
2018-07-21T16:28:36.203Z,88.39
2018-07-21T16:29:35.689Z,88.87
2018-07-21T16:30:35.317Z,87.91
2018-07-21T16:31:35.290Z,88.01
2018-07-21T16:32:35.765Z,88.01
2018-07-21T16:33:37.893Z,88.29
2018-07-21T16:34:35.476Z,87.91
2018-07-21T16:35:35.184Z,88.39
2018-07-21T16:36:35.828Z,88.29
2018-07-21T16:37:35.208Z,87.81
2018-07-21T16:38:35.222Z,87.71
2018-07-21T16:39:35.248Z,88.39
2018-07-21T16:40:35.178Z,88.59
2018-07-21T16:41:35.246Z,88.78
2018-07-21T16:42:35.199Z,88.29
2018-07-21T16:43:35.270Z,88.78
2018-07-21T16:44:35.232Z,87.81
2018-07-21T16:45:35.205Z,88.1
2018-07-21T16:46:35.284Z,88.25
2018-07-21T16:47:35.221Z,88.45
2018-07-21T16:48:35.199Z,88.73
2018-07-21T16:49:35.240Z,87.77
2018-07-21T16:50:35.215Z,87.81
2018-07-21T16:51:35.205Z,87.81
2018-07-21T16:52:35.229Z,88.2
2018-07-21T16:53:35.288Z,87.81
2018-07-21T16:54:35.227Z,88.01
2018-07-21T16:55:35.247Z,88.39
2018-07-21T16:56:35.866Z,88.1
2018-07-21T16:57:35.284Z,87.91
2018-07-21T16:58:35.231Z,88.39
2018-07-21T16:59:35.241Z,87.81
2018-07-21T17:00:35.293Z,88.29
2018-07-21T17:01:35.286Z,88.29
2018-07-21T17:02:35.257Z,88.78
2018-07-21T17:03:35.231Z,88.97
2018-07-21T17:04:35.240Z,88.83
2018-07-21T17:05:35.247Z,88.93
2018-07-21T17:06:36.260Z,89.51
2018-07-21T17:07:35.296Z,89.51
2018-07-21T17:08:35.229Z,89.03